NRT weather

Narita International Airport
Tokyo, Chiba Prefecture, Japan

Public forecast

Using degrees Celsius for public forecast. Weather courtesy of forecast.io.

METAR (pilot weather report)

Retrieved 2018/08/16 04:30 UTC (33 minutes ago):

RJAA 160430Z 22022G33KT 9999 FEW020 SCT160 BKN/// 31/22 Q1004 WS R16R WS R16L NOSIG

TAF (pilot weather forecast)

Forecast is more than 12 hours old.

Retrieved 2018/08/15 00:00 UTC (1 day ago):

TAF RJAA 152307Z 1600/1706 22018G28KT 9999 FEW030 TEMPO 1600/1609 22024G38KT BECMG 1615/1618 32012KT